Time;durP1;ratioP1;P1;durP2;ratioP2;P2;SDS_P1;SDS_P2;PMS_P1;PMS_P2;Temp;Humidity;BMP_temperature;BMP_pressure;BME280_temperature;BME280_humidity;BME280_pressure;Samples;Min_cycle;Max_cycle;Signal;HPM_P1;HPM_P2
2023/08/07 00:01:24;;;;;;;7.87;3.30;;;12.90;99.90;;;;;;5092401;28;20910;-73
2023/08/07 00:03:50;;;;;;;6.67;3.10;;;12.90;99.90;;;;;;5087219;28;20916;-71
2023/08/07 00:06:17;;;;;;;6.75;2.70;;;12.80;99.90;;;;;;5089612;28;20437;-71
2023/08/07 00:08:44;;;;;;;8.10;2.97;;;12.70;99.90;;;;;;5089017;28;20444;-71
2023/08/07 00:11:12;;;;;;;8.90;3.30;;;12.80;99.90;;;;;;5084560;28;20436;-71
2023/08/07 00:13:39;;;;;;;7.40;3.30;;;12.70;99.90;;;;;;5085794;28;20426;-73
2023/08/07 00:16:05;;;;;;;7.05;3.40;;;12.60;99.90;;;;;;5093596;28;22201;-71
2023/08/07 00:18:32;;;;;;;7.28;3.55;;;12.60;99.90;;;;;;5087939;28;20417;-71
2023/08/07 00:20:59;;;;;;;8.10;3.90;;;12.50;99.90;;;;;;5084496;28;20426;-71
2023/08/07 00:23:26;;;;;;;8.95;3.75;;;12.50;99.90;;;;;;5086274;28;20406;-72
2023/08/07 00:25:52;;;;;;;6.45;3.33;;;12.50;99.90;;;;;;5085272;28;20432;-72
2023/08/07 00:28:20;;;;;;;9.57;4.10;;;12.50;99.90;;;;;;5085981;28;20441;-72
2023/08/07 00:30:47;;;;;;;7.70;3.53;;;12.50;99.90;;;;;;5084940;28;20430;-71
2023/08/07 00:33:14;;;;;;;6.90;3.88;;;12.50;99.90;;;;;;5077616;28;20437;-71
2023/08/07 00:35:41;;;;;;;8.82;4.18;;;12.50;99.90;;;;;;5086269;28;20500;-71
2023/08/07 00:38:07;;;;;;;7.85;3.70;;;12.50;99.90;;;;;;5087925;28;20436;-71
2023/08/07 00:40:38;;;;;;;8.20;4.13;;;12.50;99.90;;;;;;5089702;28;20431;-71
2023/08/07 00:43:05;;;;;;;7.90;4.03;;;12.50;99.90;;;;;;5088316;28;20429;-71
2023/08/07 00:45:37;;;;;;;6.53;3.70;;;12.50;99.90;;;;;;5086965;28;20429;-71
2023/08/07 00:48:04;;;;;;;7.30;3.90;;;12.50;99.90;;;;;;5094406;28;20804;-71
2023/08/07 00:50:31;;;;;;;9.13;3.90;;;12.40;99.90;;;;;;5091683;28;20434;-71
2023/08/07 00:52:58;;;;;;;7.03;3.90;;;12.40;99.90;;;;;;5089081;28;20429;-71
2023/08/07 00:55:25;;;;;;;7.13;3.85;;;12.50;99.90;;;;;;5092054;28;20445;-72
2023/08/07 00:57:52;;;;;;;9.82;3.83;;;12.50;99.90;;;;;;5089029;28;20981;-71
2023/08/07 01:00:20;;;;;;;7.40;3.60;;;12.40;99.90;;;;;;5087215;28;20441;-71
2023/08/07 01:02:50;;;;;;;9.05;3.70;;;12.40;99.90;;;;;;5088301;28;20430;-72
2023/08/07 01:05:17;;;;;;;6.88;3.20;;;12.40;99.90;;;;;;5084167;28;20497;-71
2023/08/07 01:07:44;;;;;;;6.32;3.88;;;12.40;99.90;;;;;;5089271;28;20433;-71
2023/08/07 01:10:11;;;;;;;8.13;3.65;;;12.40;99.90;;;;;;5107615;22;21768;-69
2023/08/07 01:12:54;;;;;;;9.00;4.13;;;12.40;99.90;;;;;;5042236;28;20429;-69
2023/08/07 01:15:26;;;;;;;8.65;4.05;;;12.40;99.90;;;;;;5040852;28;20799;-69
2023/08/07 01:17:55;;;;;;;7.32;3.53;;;12.40;99.90;;;;;;5046454;28;20945;-69
2023/08/07 01:20:22;;;;;;;9.18;4.05;;;12.40;99.90;;;;;;5048802;28;20455;-69
2023/08/07 01:22:50;;;;;;;8.13;3.83;;;12.40;99.90;;;;;;5049231;28;20421;-69
2023/08/07 01:25:17;;;;;;;6.97;4.00;;;12.40;99.90;;;;;;5049106;28;20430;-69
2023/08/07 01:28:01;;;;;;;7.55;3.80;;;12.40;99.90;;;;;;5050675;28;20413;-69
2023/08/07 01:30:34;;;;;;;8.38;3.58;;;12.40;99.90;;;;;;5045453;28;20437;-69
2023/08/07 01:33:12;;;;;;;9.02;3.55;;;12.50;99.90;;;;;;5050188;28;20417;-69
2023/08/07 01:35:44;;;;;;;10.77;4.00;;;12.50;99.90;;;;;;5050967;28;20795;-69
2023/08/07 01:38:12;;;;;;;8.23;3.10;;;12.50;99.90;;;;;;5048564;28;20927;-69
2023/08/07 01:40:40;;;;;;;8.93;3.83;;;12.50;99.90;;;;;;5047182;28;20432;-68
2023/08/07 01:43:07;;;;;;;6.60;3.88;;;12.60;99.90;;;;;;5047772;28;20920;-69
2023/08/07 01:45:34;;;;;;;7.20;4.30;;;12.60;99.90;;;;;;5048147;28;20433;-69
2023/08/07 01:48:01;;;;;;;8.98;3.67;;;12.60;99.90;;;;;;5048508;28;20803;-69
2023/08/07 01:50:27;;;;;;;7.00;3.33;;;12.60;99.90;;;;;;5048548;28;20467;-69
2023/08/07 01:52:54;;;;;;;7.43;2.97;;;12.60;99.90;;;;;;5045777;28;20452;-69
2023/08/07 01:55:23;;;;;;;12.97;3.60;;;12.60;99.90;;;;;;5047910;28;20431;-69
2023/08/07 01:57:50;;;;;;;5.88;3.10;;;12.70;99.90;;;;;;5046902;28;21111;-68
2023/08/07 02:00:17;;;;;;;6.55;3.08;;;12.70;99.90;;;;;;5045518;28;20432;-69
2023/08/07 02:02:45;;;;;;;9.43;3.35;;;12.60;99.90;;;;;;5048858;28;20738;-69
2023/08/07 02:05:12;;;;;;;7.80;3.20;;;12.60;99.90;;;;;;5048491;28;20432;-68
2023/08/07 02:07:38;;;;;;;7.70;3.00;;;12.60;99.90;;;;;;5048818;28;20808;-69
2023/08/07 02:10:05;;;;;;;7.47;3.60;;;12.50;99.90;;;;;;5048223;28;20448;-69
2023/08/07 02:12:33;;;;;;;6.35;2.95;;;12.50;99.90;;;;;;5045389;28;20808;-68
2023/08/07 02:15:01;;;;;;;7.13;2.90;;;12.60;99.90;;;;;;5046401;28;20426;-68
2023/08/07 02:17:29;;;;;;;5.95;2.80;;;12.60;99.90;;;;;;5047844;28;20456;-69
2023/08/07 02:19:56;;;;;;;8.60;3.15;;;12.70;99.90;;;;;;5047914;28;20437;-68
2023/08/07 02:22:23;;;;;;;7.40;3.00;;;12.70;99.90;;;;;;5047815;28;20942;-68
2023/08/07 02:24:50;;;;;;;7.57;2.80;;;12.80;99.90;;;;;;5046190;28;20429;-68
2023/08/07 02:27:16;;;;;;;7.10;3.00;;;12.80;99.90;;;;;;5046569;28;20437;-69
2023/08/07 02:29:44;;;;;;;6.90;2.93;;;12.80;99.90;;;;;;5045969;28;20425;-68
2023/08/07 02:32:11;;;;;;;6.10;3.03;;;12.80;99.90;;;;;;5046533;28;20428;-68
2023/08/07 02:34:38;;;;;;;10.98;3.30;;;12.90;99.90;;;;;;5045703;28;20433;-71
2023/08/07 02:37:05;;;;;;;5.80;2.80;;;12.90;99.90;;;;;;5048431;28;20479;-69
2023/08/07 02:39:31;;;;;;;8.95;3.60;;;12.90;99.90;;;;;;5046322;28;20992;-70
2023/08/07 02:41:58;;;;;;;6.25;3.00;;;12.90;99.90;;;;;;5046470;28;20432;-70
2023/08/07 02:44:25;;;;;;;7.03;3.20;;;12.90;99.90;;;;;;5049013;28;20433;-69
2023/08/07 02:46:53;;;;;;;9.10;3.38;;;12.80;99.90;;;;;;5044765;28;20821;-69
2023/08/07 02:49:20;;;;;;;7.47;3.40;;;12.70;99.90;;;;;;5046093;28;20437;-70
2023/08/07 02:51:46;;;;;;;7.80;4.07;;;12.60;99.90;;;;;;5045090;28;20440;-70
2023/08/07 02:54:13;;;;;;;8.00;4.10;;;12.50;99.90;;;;;;5046214;28;20456;-70
2023/08/07 02:56:40;;;;;;;7.82;4.40;;;12.40;99.90;;;;;;5046003;28;20426;-69
2023/08/07 02:59:07;;;;;;;7.15;3.95;;;12.30;99.90;;;;;;5047964;28;20421;-69
2023/08/07 03:01:33;;;;;;;7.90;3.53;;;12.20;99.90;;;;;;5045108;28;20432;-70
2023/08/07 03:04:01;;;;;;;9.70;4.38;;;12.20;99.90;;;;;;5047924;28;20413;-69
2023/08/07 03:06:28;;;;;;;11.25;4.10;;;12.10;99.90;;;;;;5048431;28;20900;-70
2023/08/07 03:08:55;;;;;;;10.93;4.20;;;12.10;99.90;;;;;;5043802;28;20437;-70
2023/08/07 03:11:21;;;;;;;9.25;3.83;;;12.00;99.90;;;;;;5043571;28;20511;-70
2023/08/07 03:13:49;;;;;;;7.22;3.50;;;12.00;99.90;;;;;;5047198;28;20436;-70
2023/08/07 03:16:16;;;;;;;6.30;3.30;;;12.00;99.90;;;;;;5052898;28;20456;-70
2023/08/07 03:18:42;;;;;;;9.10;3.40;;;11.90;99.90;;;;;;5045568;28;20803;-70
2023/08/07 03:21:10;;;;;;;9.70;3.70;;;11.90;99.90;;;;;;5046188;28;20441;-70
2023/08/07 03:23:37;;;;;;;9.32;4.00;;;11.90;99.90;;;;;;5045592;28;20440;-70
2023/08/07 03:26:05;;;;;;;7.72;3.83;;;11.90;99.90;;;;;;5045582;28;20417;-70
2023/08/07 03:28:31;;;;;;;9.73;4.53;;;11.90;99.90;;;;;;5046471;28;20440;-70
2023/08/07 03:30:58;;;;;;;8.73;4.07;;;11.90;99.90;;;;;;5045972;28;20433;-70
2023/08/07 03:33:25;;;;;;;8.27;3.70;;;11.90;99.90;;;;;;5047657;28;20437;-69
2023/08/07 03:35:52;;;;;;;7.20;4.22;;;11.90;99.90;;;;;;5046164;28;20938;-69
2023/08/07 03:38:20;;;;;;;8.77;4.78;;;11.80;99.90;;;;;;5044064;28;20441;-69
2023/08/07 03:40:47;;;;;;;8.73;4.10;;;11.80;99.90;;;;;;5047936;28;20460;-70
2023/08/07 03:43:13;;;;;;;8.30;4.57;;;11.80;99.90;;;;;;5045423;28;20442;-70
2023/08/07 03:45:40;;;;;;;7.85;3.97;;;11.80;99.90;;;;;;5047321;28;20436;-70
2023/08/07 03:48:07;;;;;;;7.05;4.45;;;11.80;99.90;;;;;;5045402;28;20483;-69
2023/08/07 03:50:36;;;;;;;7.43;4.20;;;11.80;99.90;;;;;;5040707;28;20433;-69
2023/08/07 03:53:03;;;;;;;9.48;4.85;;;11.80;99.90;;;;;;5046159;28;20433;-70
2023/08/07 03:55:32;;;;;;;9.13;4.70;;;11.80;99.90;;;;;;5045788;28;20559;-69
2023/08/07 03:57:58;;;;;;;9.05;4.20;;;11.80;99.90;;;;;;5045904;28;20915;-69
2023/08/07 04:00:25;;;;;;;9.68;4.45;;;11.90;99.90;;;;;;5046033;28;20446;-71
2023/08/07 04:02:52;;;;;;;8.55;4.60;;;11.80;99.90;;;;;;5045727;28;20437;-70
2023/08/07 04:05:18;;;;;;;9.32;4.43;;;11.90;99.90;;;;;;5045627;28;20452;-71
2023/08/07 04:07:45;;;;;;;7.30;4.15;;;11.90;99.90;;;;;;5046632;28;20429;-71
2023/08/07 04:10:12;;;;;;;6.32;4.32;;;11.90;99.90;;;;;;5045315;28;20425;-70
2023/08/07 04:12:40;;;;;;;6.32;3.90;;;11.90;99.90;;;;;;5043000;28;20433;-71
2023/08/07 04:15:08;;;;;;;7.78;3.92;;;11.90;99.90;;;;;;5046912;28;20440;-71
2023/08/07 04:17:36;;;;;;;8.75;4.38;;;11.90;99.90;;;;;;5044681;28;20457;-71
2023/08/07 04:20:03;;;;;;;7.40;4.35;;;11.90;99.90;;;;;;5045734;28;20421;-71
2023/08/07 04:22:31;;;;;;;7.88;4.70;;;11.90;99.90;;;;;;5048551;28;20902;-70
2023/08/07 04:24:58;;;;;;;7.38;4.30;;;11.90;99.90;;;;;;5050566;28;20429;-70
2023/08/07 04:27:24;;;;;;;8.27;4.40;;;11.90;99.90;;;;;;5048054;28;20425;-70
2023/08/07 04:29:52;;;;;;;8.93;4.45;;;11.90;99.90;;;;;;5048995;28;20441;-70
2023/08/07 04:32:19;;;;;;;8.40;4.30;;;11.90;99.90;;;;;;5048554;28;20436;-70
2023/08/07 04:34:46;;;;;;;8.55;4.82;;;11.90;99.90;;;;;;5049434;28;20927;-70
2023/08/07 04:37:12;;;;;;;9.63;4.30;;;11.90;99.90;;;;;;5050224;28;20432;-70
2023/08/07 04:39:39;;;;;;;6.57;4.57;;;11.90;99.90;;;;;;5049191;28;20604;-70
2023/08/07 04:42:06;;;;;;;7.18;4.32;;;11.90;99.90;;;;;;5047600;28;20443;-71
2023/08/07 04:44:33;;;;;;;7.53;4.77;;;11.90;99.90;;;;;;5047816;28;20433;-71
2023/08/07 04:47:01;;;;;;;8.90;4.60;;;11.90;99.90;;;;;;5048233;28;20926;-71
2023/08/07 04:49:28;;;;;;;8.90;4.50;;;11.90;99.90;;;;;;5049848;28;20443;-70
2023/08/07 04:51:55;;;;;;;9.18;4.72;;;12.00;99.90;;;;;;5049266;28;20437;-70
2023/08/07 04:54:21;;;;;;;7.05;4.50;;;12.00;99.90;;;;;;5047118;28;20452;-71
2023/08/07 04:56:48;;;;;;;7.50;4.55;;;12.00;99.90;;;;;;5046492;28;20432;-71
2023/08/07 04:59:15;;;;;;;8.80;4.68;;;12.00;99.90;;;;;;5041704;28;20529;-69
2023/08/07 05:01:42;;;;;;;10.95;4.97;;;12.00;99.90;;;;;;5041598;28;20771;-70
2023/08/07 05:04:10;;;;;;;8.50;5.05;;;12.00;99.90;;;;;;5048828;28;20512;-69
2023/08/07 05:06:36;;;;;;;9.32;5.00;;;12.00;99.90;;;;;;5045836;28;20870;-70
2023/08/07 05:09:04;;;;;;;7.80;4.40;;;12.00;99.90;;;;;;5045567;28;20444;-72
2023/08/07 05:11:31;;;;;;;8.32;4.70;;;12.00;99.90;;;;;;5043015;28;20483;-72
2023/08/07 05:13:57;;;;;;;10.35;4.70;;;12.10;99.90;;;;;;5046595;28;20433;-70
2023/08/07 05:16:24;;;;;;;8.48;4.40;;;12.10;99.90;;;;;;5042261;28;20486;-72
2023/08/07 05:18:51;;;;;;;6.47;3.85;;;12.10;99.90;;;;;;5041605;28;20818;-72
2023/08/07 05:21:19;;;;;;;7.28;4.28;;;12.10;99.90;;;;;;5038788;28;20498;-72
2023/08/07 05:23:47;;;;;;;9.52;3.90;;;12.10;99.90;;;;;;5046663;28;20433;-72
2023/08/07 05:26:14;;;;;;;6.65;3.75;;;12.10;99.90;;;;;;5042690;28;20483;-72
2023/08/07 05:28:41;;;;;;;6.43;3.90;;;12.20;99.90;;;;;;5047615;28;20419;-72
2023/08/07 05:31:07;;;;;;;6.82;3.85;;;12.20;99.90;;;;;;5043797;28;20441;-72
2023/08/07 05:33:34;;;;;;;6.30;4.13;;;12.20;99.90;;;;;;5048565;28;20466;-72
2023/08/07 05:36:01;;;;;;;6.95;3.60;;;12.20;99.90;;;;;;5047787;28;20478;-72
2023/08/07 05:38:29;;;;;;;6.90;3.50;;;12.20;99.90;;;;;;5052156;28;20441;-71
2023/08/07 05:40:56;;;;;;;7.82;3.60;;;12.30;99.90;;;;;;5047279;28;20433;-70
2023/08/07 05:43:22;;;;;;;9.05;3.45;;;12.30;99.90;;;;;;5046319;28;20433;-71
2023/08/07 05:45:49;;;;;;;6.30;4.10;;;12.40;99.90;;;;;;5050065;28;20462;-71
2023/08/07 05:48:17;;;;;;;7.65;3.65;;;12.40;99.90;;;;;;5049194;28;20444;-71
2023/08/07 05:50:43;;;;;;;6.60;3.47;;;12.40;99.90;;;;;;5043976;28;20444;-72
2023/08/07 05:53:11;;;;;;;5.60;2.60;;;12.40;99.90;;;;;;5046926;28;20429;-71
2023/08/07 05:55:41;;;;;;;6.70;3.33;;;12.40;99.90;;;;;;5043823;28;20437;-72
2023/08/07 05:58:08;;;;;;;4.60;2.78;;;12.50;99.90;;;;;;5039155;28;20432;-72
2023/08/07 06:00:35;;;;;;;6.72;3.15;;;12.50;99.90;;;;;;5039590;28;20432;-72
2023/08/07 06:03:02;;;;;;;8.55;3.10;;;12.50;99.90;;;;;;5039214;28;20446;-72
2023/08/07 06:05:29;;;;;;;6.85;3.25;;;12.50;99.90;;;;;;5041872;28;20481;-71
2023/08/07 06:07:56;;;;;;;6.45;3.03;;;12.40;99.90;;;;;;5042304;28;20433;-72
2023/08/07 06:10:23;;;;;;;6.53;3.35;;;12.40;99.90;;;;;;5040024;28;20429;-71
2023/08/07 06:12:51;;;;;;;6.18;3.30;;;12.30;99.90;;;;;;5043667;28;20425;-72
2023/08/07 06:15:18;;;;;;;5.93;3.35;;;12.20;99.90;;;;;;5041007;28;20429;-71
2023/08/07 06:17:44;;;;;;;9.43;4.32;;;12.10;99.90;;;;;;5034155;28;20928;-71
2023/08/07 06:20:14;;;;;;;7.50;3.67;;;12.00;99.90;;;;;;5036102;28;20923;-71
2023/08/07 06:22:40;;;;;;;7.53;4.30;;;12.00;99.90;;;;;;5041405;28;20429;-71
2023/08/07 06:25:08;;;;;;;5.20;3.60;;;11.90;99.90;;;;;;5042073;28;20429;-70
2023/08/07 06:27:35;;;;;;;6.80;3.67;;;11.90;99.90;;;;;;5036408;28;20505;-71
2023/08/07 06:30:03;;;;;;;9.95;3.75;;;11.80;99.90;;;;;;5040624;28;20915;-71
2023/08/07 06:32:30;;;;;;;8.05;3.70;;;11.80;99.90;;;;;;5045587;28;20926;-71
2023/08/07 06:34:57;;;;;;;8.50;3.70;;;11.70;99.90;;;;;;5043428;28;20441;-72
2023/08/07 06:37:24;;;;;;;8.10;4.40;;;11.70;99.90;;;;;;5034628;28;20437;-70
2023/08/07 06:39:51;;;;;;;8.17;3.60;;;11.70;99.90;;;;;;5039794;28;20942;-71
2023/08/07 06:42:17;;;;;;;6.90;3.88;;;11.60;99.90;;;;;;5040243;28;20919;-71
2023/08/07 06:44:44;;;;;;;7.25;4.07;;;11.60;99.90;;;;;;5041509;28;20429;-71
2023/08/07 06:47:12;;;;;;;10.75;5.20;;;11.60;99.90;;;;;;5042657;28;20432;-71
2023/08/07 06:49:39;;;;;;;7.78;4.22;;;11.60;99.90;;;;;;5040138;28;20800;-71
2023/08/07 06:52:06;;;;;;;8.57;4.60;;;11.60;99.90;;;;;;5043756;28;20924;-71
2023/08/07 06:54:33;;;;;;;10.02;4.40;;;11.60;99.90;;;;;;5045226;28;20433;-71
2023/08/07 06:57:00;;;;;;;12.25;4.90;;;11.60;99.90;;;;;;5045502;28;20429;-71
2023/08/07 06:59:27;;;;;;;8.25;4.57;;;11.60;99.90;;;;;;5044264;28;20433;-71
2023/08/07 07:01:53;;;;;;;9.98;4.78;;;11.60;99.90;;;;;;5042862;28;20436;-71
2023/08/07 07:04:21;;;;;;;9.23;4.40;;;11.60;99.90;;;;;;5044536;28;20429;-71
2023/08/07 07:06:48;;;;;;;8.00;4.43;;;11.60;99.90;;;;;;5039703;28;20432;-71
2023/08/07 07:09:16;;;;;;;7.60;4.70;;;11.60;99.90;;;;;;5046817;28;20445;-71
2023/08/07 07:11:44;;;;;;;9.80;4.40;;;11.60;99.90;;;;;;5074854;22;20934;-72
2023/08/07 07:14:11;;;;;;;9.85;4.13;;;11.60;99.90;;;;;;5071231;28;20487;-69
2023/08/07 07:16:38;;;;;;;7.10;4.30;;;11.60;99.90;;;;;;5076810;28;20423;-70
2023/08/07 07:19:06;;;;;;;7.97;4.50;;;11.60;99.90;;;;;;5077311;28;20439;-69
2023/08/07 07:21:34;;;;;;;9.30;4.97;;;11.60;99.90;;;;;;5074790;28;20432;-70
2023/08/07 07:24:01;;;;;;;8.95;4.28;;;11.70;99.90;;;;;;5077248;28;20904;-70
2023/08/07 07:26:28;;;;;;;11.20;4.53;;;11.70;99.90;;;;;;5081303;28;20536;-70
2023/08/07 07:28:55;;;;;;;8.95;4.20;;;11.70;99.90;;;;;;5069804;28;20423;-69
2023/08/07 07:31:22;;;;;;;6.60;4.40;;;11.70;99.90;;;;;;5075879;28;20862;-70
2023/08/07 07:33:49;;;;;;;10.50;4.88;;;11.70;99.90;;;;;;5074312;28;20440;-70
2023/08/07 07:36:17;;;;;;;8.95;4.82;;;11.70;99.90;;;;;;5074967;28;20437;-70
2023/08/07 07:38:47;;;;;;;10.00;4.50;;;11.80;99.90;;;;;;5074571;28;20425;-70
2023/08/07 07:41:14;;;;;;;9.30;4.90;;;11.80;99.90;;;;;;5073909;28;20429;-70
2023/08/07 07:43:41;;;;;;;9.30;4.80;;;11.80;99.90;;;;;;5071442;28;20483;-69
2023/08/07 07:46:07;;;;;;;9.38;4.65;;;11.80;99.90;;;;;;5072511;28;20787;-69
2023/08/07 07:48:34;;;;;;;9.25;4.68;;;11.80;99.90;;;;;;5075584;28;20657;-69
2023/08/07 07:51:03;;;;;;;8.45;4.28;;;11.80;99.90;;;;;;5073347;28;20426;-69
2023/08/07 07:53:31;;;;;;;8.85;4.15;;;11.90;99.90;;;;;;5073785;28;20429;-69
2023/08/07 07:55:59;;;;;;;8.00;4.60;;;11.90;99.90;;;;;;5076727;28;20438;-68
2023/08/07 07:58:26;;;;;;;10.35;4.50;;;11.90;99.90;;;;;;5078175;28;20508;-69
2023/08/07 08:00:54;;;;;;;8.68;4.40;;;11.90;99.90;;;;;;5075825;28;20790;-69
2023/08/07 08:03:21;;;;;;;6.70;4.00;;;12.00;99.90;;;;;;5072283;28;20447;-69
2023/08/07 08:05:51;;;;;;;8.10;4.10;;;12.00;99.90;;;;;;5078946;28;20534;-69
2023/08/07 08:08:17;;;;;;;6.68;4.07;;;12.10;99.90;;;;;;5073878;28;20961;-69
2023/08/07 08:10:46;;;;;;;6.63;4.30;;;12.10;99.90;;;;;;5077131;28;20462;-69
2023/08/07 08:13:14;;;;;;;7.60;4.10;;;12.20;99.90;;;;;;5077744;28;20433;-69
2023/08/07 08:15:41;;;;;;;7.13;3.80;;;12.20;99.90;;;;;;5079996;28;20448;-69
2023/08/07 08:18:08;;;;;;;8.10;4.30;;;12.30;99.90;;;;;;5073596;28;20426;-69
2023/08/07 08:20:35;;;;;;;9.05;3.55;;;12.30;99.90;;;;;;5083325;28;20438;-69
2023/08/07 08:23:01;;;;;;;6.72;3.80;;;12.30;99.90;;;;;;5076588;28;20454;-69
2023/08/07 08:25:29;;;;;;;8.15;3.80;;;12.40;99.90;;;;;;5076606;28;20435;-69
2023/08/07 08:27:55;;;;;;;10.02;4.25;;;12.40;99.90;;;;;;5079489;28;20432;-69
2023/08/07 08:30:23;;;;;;;8.52;4.00;;;12.50;99.90;;;;;;5076170;28;20436;-69
2023/08/07 08:32:50;;;;;;;6.60;3.97;;;12.60;99.90;;;;;;5075114;28;20429;-69
2023/08/07 08:35:17;;;;;;;6.72;3.45;;;12.60;99.90;;;;;;5077309;28;20782;-68
2023/08/07 08:37:44;;;;;;;7.03;3.40;;;12.70;99.90;;;;;;5079172;28;20437;-69
2023/08/07 08:40:16;;;;;;;8.63;3.90;;;12.60;99.90;;;;;;5075887;28;20492;-68
2023/08/07 08:42:44;;;;;;;6.55;3.80;;;12.60;99.90;;;;;;5078411;28;20893;-69
2023/08/07 08:45:13;;;;;;;7.60;4.60;;;12.50;99.90;;;;;;5079632;28;20811;-69
2023/08/07 08:47:43;;;;;;;9.10;4.45;;;12.50;99.90;;;;;;5077924;28;20425;-68
2023/08/07 08:50:12;;;;;;;9.38;4.07;;;12.50;99.90;;;;;;5077702;28;20485;-69
2023/08/07 08:52:42;;;;;;;7.68;4.20;;;12.60;99.90;;;;;;5077976;28;20427;-69
2023/08/07 08:55:09;;;;;;;5.82;3.90;;;12.60;99.90;;;;;;5075672;28;20927;-69
2023/08/07 08:57:38;;;;;;;11.65;4.00;;;12.70;99.90;;;;;;5077051;28;20434;-68
2023/08/07 09:00:14;;;;;;;8.95;3.97;;;12.70;99.90;;;;;;5076294;28;20914;-68
2023/08/07 09:02:44;;;;;;;6.53;3.58;;;12.80;99.90;;;;;;5075383;28;20449;-69
2023/08/07 09:05:10;;;;;;;7.45;3.60;;;12.80;99.90;;;;;;5075610;28;20426;-69
2023/08/07 09:07:38;;;;;;;10.00;4.03;;;12.80;99.90;;;;;;5073811;28;20436;-69
2023/08/07 09:10:06;;;;;;;6.95;4.00;;;12.90;99.90;;;;;;5073242;28;20497;-68
2023/08/07 09:12:33;;;;;;;7.50;3.50;;;12.90;99.90;;;;;;5075180;28;20484;-69
2023/08/07 09:15:04;;;;;;;6.47;3.38;;;13.00;99.90;;;;;;5075414;28;20460;-69
2023/08/07 09:17:36;;;;;;;8.07;3.63;;;13.00;99.90;;;;;;5075998;28;20546;-68
2023/08/07 09:20:06;;;;;;;6.80;3.40;;;13.10;99.90;;;;;;5073131;28;20520;-69
2023/08/07 09:22:33;;;;;;;4.90;3.28;;;13.10;99.90;;;;;;5076598;28;20513;-69
2023/08/07 09:25:00;;;;;;;8.90;3.28;;;13.20;99.90;;;;;;5073944;28;20438;-69
2023/08/07 09:27:27;;;;;;;6.82;3.80;;;13.30;99.90;;;;;;5075918;28;20487;-68
2023/08/07 09:29:56;;;;;;;6.27;3.00;;;13.40;99.90;;;;;;5074934;28;20539;-69
2023/08/07 09:32:24;;;;;;;7.13;2.90;;;13.50;99.90;;;;;;5071025;28;20498;-69
2023/08/07 09:34:51;;;;;;;6.28;3.20;;;13.60;99.90;;;;;;5079670;28;20528;-69
2023/08/07 09:37:19;;;;;;;7.55;3.47;;;13.70;99.90;;;;;;5076006;28;20457;-69
2023/08/07 09:39:47;;;;;;;7.45;3.00;;;13.80;99.90;;;;;;5080887;28;20425;-70
2023/08/07 09:42:15;;;;;;;3.88;2.72;;;13.90;99.90;;;;;;5070138;28;20443;-68
2023/08/07 09:44:42;;;;;;;5.55;3.28;;;14.00;99.90;;;;;;5068603;28;20503;-68
2023/08/07 09:47:13;;;;;;;5.05;2.50;;;14.20;99.90;;;;;;5073616;28;20540;-66
2023/08/07 09:49:40;;;;;;;6.22;3.10;;;14.50;99.90;;;;;;5078595;28;20949;-66
2023/08/07 09:52:08;;;;;;;5.43;2.53;;;14.70;99.90;;;;;;5076114;28;20429;-66
2023/08/07 09:54:37;;;;;;;4.60;2.80;;;14.80;99.90;;;;;;5082569;28;20444;-66
2023/08/07 09:57:04;;;;;;;6.15;3.00;;;14.90;99.90;;;;;;5074517;28;20497;-65
2023/08/07 09:59:33;;;;;;;6.45;2.90;;;14.90;99.90;;;;;;5079435;28;20439;-66
2023/08/07 10:02:02;;;;;;;4.68;2.80;;;14.80;99.90;;;;;;5075599;28;20810;-66
2023/08/07 10:04:30;;;;;;;4.50;2.70;;;14.80;99.90;;;;;;5076597;28;20434;-77
2023/08/07 10:06:57;;;;;;;5.00;2.80;;;14.90;99.90;;;;;;5073438;28;20486;-73
2023/08/07 10:09:25;;;;;;;8.02;3.20;;;14.90;99.90;;;;;;5068703;28;20415;-69
2023/08/07 10:11:53;;;;;;;6.33;3.03;;;15.00;99.90;;;;;;5072711;28;20756;-69
2023/08/07 10:14:20;;;;;;;5.88;2.45;;;15.10;99.90;;;;;;5072201;28;20528;-69
2023/08/07 10:16:47;;;;;;;5.80;2.78;;;15.20;99.90;;;;;;5069807;28;20431;-69
2023/08/07 10:19:14;;;;;;;4.47;2.45;;;15.20;99.90;;;;;;5067812;28;20431;-69
2023/08/07 10:21:42;;;;;;;4.83;2.53;;;15.40;99.90;;;;;;5077619;28;20536;-69
2023/08/07 10:24:10;;;;;;;4.50;2.65;;;15.50;99.70;;;;;;5078113;28;20757;-69
2023/08/07 10:26:40;;;;;;;10.25;5.65;;;15.60;99.10;;;;;;5078266;28;20452;-72
2023/08/07 10:29:11;;;;;;;10.18;5.15;;;15.70;99.90;;;;;;5079434;28;20430;-71
2023/08/07 10:31:41;;;;;;;5.00;2.83;;;15.80;99.90;;;;;;5079869;28;20441;-68
2023/08/07 10:34:08;;;;;;;9.38;5.20;;;16.20;99.00;;;;;;5075546;28;20439;-68
2023/08/07 10:36:38;;;;;;;8.07;4.00;;;16.50;99.90;;;;;;5078073;28;20431;-67
2023/08/07 10:39:09;;;;;;;5.43;3.00;;;16.90;99.70;;;;;;5075694;28;20431;-68
2023/08/07 10:41:40;;;;;;;3.85;2.80;;;17.20;97.10;;;;;;5082104;28;20433;-68
2023/08/07 10:44:18;;;;;;;6.20;2.70;;;17.30;95.30;;;;;;5078599;28;20453;-68
2023/08/07 10:46:49;;;;;;;5.90;3.10;;;17.40;94.00;;;;;;5080661;28;20937;-68
2023/08/07 10:49:32;;;;;;;7.72;2.75;;;17.50;93.60;;;;;;5073819;28;20427;-69
2023/08/07 10:51:59;;;;;;;5.60;2.38;;;17.80;93.70;;;;;;5077324;28;20438;-68
2023/08/07 10:54:26;;;;;;;4.65;2.60;;;18.00;90.70;;;;;;5074814;28;20759;-68
2023/08/07 10:56:54;;;;;;;5.75;2.33;;;18.10;87.00;;;;;;5077465;28;20426;-68
2023/08/07 10:59:22;;;;;;;4.32;1.77;;;18.30;86.20;;;;;;5080919;28;20576;-66
2023/08/07 11:01:52;;;;;;;3.88;1.80;;;18.40;82.30;;;;;;5080287;28;20430;-69
2023/08/07 11:04:20;;;;;;;4.03;1.77;;;18.50;80.90;;;;;;5075871;28;20438;-69
2023/08/07 11:06:49;;;;;;;6.00;2.00;;;18.40;78.00;;;;;;5071534;28;20914;-70
2023/08/07 11:09:17;;;;;;;3.70;1.92;;;18.20;79.40;;;;;;5080519;28;20667;-69
2023/08/07 11:11:46;;;;;;;3.28;1.70;;;18.10;79.90;;;;;;5082588;28;20430;-69
2023/08/07 11:14:14;;;;;;;5.68;1.90;;;18.00;80.60;;;;;;5079303;28;20432;-69
2023/08/07 11:16:43;;;;;;;4.53;1.73;;;17.90;82.20;;;;;;5073431;28;20531;-69
2023/08/07 11:19:12;;;;;;;4.88;1.70;;;18.00;78.20;;;;;;5075143;28;20447;-69
2023/08/07 11:21:39;;;;;;;3.65;1.80;;;18.10;77.70;;;;;;5071857;28;20413;-69
2023/08/07 11:24:06;;;;;;;3.90;1.90;;;18.30;78.40;;;;;;5080822;28;20915;-69
2023/08/07 11:26:32;;;;;;;3.83;1.80;;;18.60;77.60;;;;;;5077148;28;20488;-69
2023/08/07 11:28:59;;;;;;;3.22;1.70;;;18.90;74.90;;;;;;5078353;28;20426;-68
2023/08/07 11:31:27;;;;;;;4.53;1.80;;;19.10;76.60;;;;;;5072662;28;20433;-69
2023/08/07 11:33:57;;;;;;;4.60;1.90;;;19.20;73.00;;;;;;5075679;28;20523;-70
2023/08/07 11:36:24;;;;;;;5.30;1.80;;;19.40;74.70;;;;;;5071508;28;20447;-69
2023/08/07 11:38:51;;;;;;;3.10;1.85;;;19.60;71.20;;;;;;5071642;28;20450;-69
2023/08/07 11:41:19;;;;;;;2.92;1.52;;;19.70;70.80;;;;;;5073147;28;20412;-69
2023/08/07 11:43:46;;;;;;;4.30;1.90;;;19.60;71.00;;;;;;5073868;28;20435;-69
2023/08/07 11:46:15;;;;;;;4.03;1.70;;;19.70;69.40;;;;;;5077489;28;20530;-70
2023/08/07 11:48:43;;;;;;;3.70;1.80;;;20.00;70.30;;;;;;5077737;28;20430;-69
2023/08/07 11:51:11;;;;;;;3.00;1.80;;;20.10;69.30;;;;;;5074635;28;20439;-69
2023/08/07 11:53:39;;;;;;;5.80;1.85;;;20.00;71.20;;;;;;5071143;28;20438;-69
2023/08/07 11:56:09;;;;;;;3.50;1.47;;;19.80;63.70;;;;;;5079080;28;20557;-70
2023/08/07 11:58:37;;;;;;;4.28;1.80;;;19.80;61.50;;;;;;5079802;28;20979;-70
2023/08/07 12:01:05;;;;;;;2.90;1.40;;;19.90;61.30;;;;;;5077203;28;20486;-69
2023/08/07 12:03:34;;;;;;;3.33;1.70;;;20.10;63.20;;;;;;5078067;28;20884;-68
2023/08/07 12:06:05;;;;;;;4.03;1.98;;;20.30;58.80;;;;;;5077118;28;20967;-70
2023/08/07 12:08:35;;;;;;;4.30;1.80;;;20.20;58.20;;;;;;5069912;28;20431;-69
2023/08/07 12:11:04;;;;;;;4.40;1.77;;;20.20;59.00;;;;;;5074541;28;20431;-70
2023/08/07 12:13:31;;;;;;;5.20;1.90;;;20.40;58.60;;;;;;5073499;28;20429;-69
2023/08/07 12:15:58;;;;;;;4.00;1.80;;;20.70;60.00;;;;;;5073733;28;20432;-68
2023/08/07 12:18:28;;;;;;;4.88;1.80;;;20.90;56.50;;;;;;5077689;28;20490;-69
2023/08/07 12:20:59;;;;;;;3.83;1.63;;;20.90;56.80;;;;;;5075739;28;20899;-69
2023/08/07 12:23:26;;;;;;;4.10;1.85;;;21.00;56.20;;;;;;5078888;28;20436;-69
2023/08/07 12:25:54;;;;;;;4.75;2.30;;;21.20;57.60;;;;;;5067990;28;20441;-69
2023/08/07 12:28:21;;;;;;;3.60;1.80;;;21.40;54.20;;;;;;5070777;28;20447;-69
2023/08/07 12:30:49;;;;;;;3.20;1.90;;;21.90;52.60;;;;;;5074252;28;20659;-68
2023/08/07 12:33:16;;;;;;;3.60;1.85;;;22.30;48.80;;;;;;5072130;28;21018;-69
2023/08/07 12:35:43;;;;;;;4.55;1.77;;;22.50;48.10;;;;;;5072669;28;20520;-69
2023/08/07 12:38:10;;;;;;;3.25;1.70;;;22.80;47.90;;;;;;5075824;28;20526;-72
2023/08/07 12:40:37;;;;;;;2.40;1.40;;;22.80;47.20;;;;;;5073226;28;20434;-70
2023/08/07 12:43:05;;;;;;;3.80;1.60;;;22.90;45.10;;;;;;5073512;28;20475;-72
2023/08/07 12:45:33;;;;;;;3.42;1.70;;;22.80;46.30;;;;;;5075406;28;20426;-73
2023/08/07 12:48:00;;;;;;;2.40;1.92;;;22.90;47.40;;;;;;5077918;28;20429;-72